sensor_id;sensor_type;location;lat;lon;timestamp;P1;durP1;ratioP1;P2;durP2;ratioP2
757;SDS011;363;48.764;9.172;2022-09-12T00:01:08;8.97;;;8.07;;
757;SDS011;363;48.764;9.172;2022-09-12T00:03:35;9.80;;;8.93;;
757;SDS011;363;48.764;9.172;2022-09-12T00:06:36;8.90;;;8.10;;
757;SDS011;363;48.764;9.172;2022-09-12T00:08:57;9.30;;;8.40;;
757;SDS011;363;48.764;9.172;2022-09-12T00:11:25;10.00;;;7.78;;
757;SDS011;363;48.764;9.172;2022-09-12T00:13:54;8.32;;;7.53;;
757;SDS011;363;48.764;9.172;2022-09-12T00:16:25;11.57;;;7.80;;
757;SDS011;363;48.764;9.172;2022-09-12T00:18:52;8.77;;;7.97;;
757;SDS011;363;48.764;9.172;2022-09-12T00:21:18;8.53;;;7.73;;
757;SDS011;363;48.764;9.172;2022-09-12T00:23:45;10.45;;;8.35;;
757;SDS011;363;48.764;9.172;2022-09-12T00:26:11;8.65;;;7.85;;
757;SDS011;363;48.764;9.172;2022-09-12T00:28:38;8.30;;;7.60;;
757;SDS011;363;48.764;9.172;2022-09-12T00:31:05;9.75;;;8.80;;
757;SDS011;363;48.764;9.172;2022-09-12T00:33:33;9.20;;;8.25;;
757;SDS011;363;48.764;9.172;2022-09-12T00:36:02;8.57;;;7.88;;
757;SDS011;363;48.764;9.172;2022-09-12T00:38:34;8.95;;;8.05;;
757;SDS011;363;48.764;9.172;2022-09-12T00:41:03;9.43;;;8.52;;
757;SDS011;363;48.764;9.172;2022-09-12T00:45:55;9.80;;;8.93;;
757;SDS011;363;48.764;9.172;2022-09-12T00:48:25;9.60;;;8.70;;
757;SDS011;363;48.764;9.172;2022-09-12T00:50:57;8.50;;;7.80;;
757;SDS011;363;48.764;9.172;2022-09-12T00:53:24;8.35;;;7.55;;
757;SDS011;363;48.764;9.172;2022-09-12T00:55:50;8.87;;;8.07;;
757;SDS011;363;48.764;9.172;2022-09-12T00:58:22;8.30;;;7.53;;
757;SDS011;363;48.764;9.172;2022-09-12T01:00:51;8.73;;;7.93;;
757;SDS011;363;48.764;9.172;2022-09-12T01:03:17;8.20;;;7.40;;
757;SDS011;363;48.764;9.172;2022-09-12T01:05:48;9.65;;;8.63;;
757;SDS011;363;48.764;9.172;2022-09-12T01:08:33;8.57;;;7.78;;
757;SDS011;363;48.764;9.172;2022-09-12T01:11:04;8.88;;;8.07;;
757;SDS011;363;48.764;9.172;2022-09-12T01:13:35;9.77;;;8.85;;
757;SDS011;363;48.764;9.172;2022-09-12T01:16:02;9.13;;;8.25;;
757;SDS011;363;48.764;9.172;2022-09-12T01:18:43;9.40;;;8.50;;
757;SDS011;363;48.764;9.172;2022-09-12T01:24:16;9.05;;;8.15;;
757;SDS011;363;48.764;9.172;2022-09-12T01:32:07;8.63;;;7.78;;
757;SDS011;363;48.764;9.172;2022-09-12T01:34:48;8.88;;;8.07;;
757;SDS011;363;48.764;9.172;2022-09-12T01:37:38;9.77;;;7.82;;
757;SDS011;363;48.764;9.172;2022-09-12T01:40:17;8.98;;;8.18;;
757;SDS011;363;48.764;9.172;2022-09-12T01:42:56;9.98;;;9.02;;
757;SDS011;363;48.764;9.172;2022-09-12T01:45:32;10.18;;;8.20;;
757;SDS011;363;48.764;9.172;2022-09-12T01:48:18;9.20;;;8.30;;
757;SDS011;363;48.764;9.172;2022-09-12T01:53:28;9.68;;;8.77;;
757;SDS011;363;48.764;9.172;2022-09-12T01:58:57;9.70;;;8.60;;
757;SDS011;363;48.764;9.172;2022-09-12T02:01:32;9.20;;;8.27;;
757;SDS011;363;48.764;9.172;2022-09-12T02:06:31;9.27;;;8.20;;
757;SDS011;363;48.764;9.172;2022-09-12T02:09:02;9.00;;;8.18;;
757;SDS011;363;48.764;9.172;2022-09-12T02:11:33;9.48;;;8.55;;
757;SDS011;363;48.764;9.172;2022-09-12T02:14:03;8.85;;;8.00;;
757;SDS011;363;48.764;9.172;2022-09-12T02:16:50;9.70;;;8.80;;
757;SDS011;363;48.764;9.172;2022-09-12T02:19:36;9.32;;;7.80;;
757;SDS011;363;48.764;9.172;2022-09-12T02:22:24;10.43;;;9.43;;
757;SDS011;363;48.764;9.172;2022-09-12T02:24:53;9.75;;;8.82;;
757;SDS011;363;48.764;9.172;2022-09-12T02:27:23;9.95;;;8.95;;
757;SDS011;363;48.764;9.172;2022-09-12T02:29:56;10.57;;;9.52;;
757;SDS011;363;48.764;9.172;2022-09-12T02:38:12;11.48;;;10.27;;
757;SDS011;363;48.764;9.172;2022-09-12T02:40:39;10.98;;;9.90;;
757;SDS011;363;48.764;9.172;2022-09-12T02:43:05;10.00;;;9.00;;
757;SDS011;363;48.764;9.172;2022-09-12T02:45:32;10.57;;;9.50;;
757;SDS011;363;48.764;9.172;2022-09-12T02:48:01;11.02;;;9.93;;
757;SDS011;363;48.764;9.172;2022-09-12T02:50:34;11.90;;;9.18;;
757;SDS011;363;48.764;9.172;2022-09-12T02:53:00;12.40;;;9.00;;
757;SDS011;363;48.764;9.172;2022-09-12T02:55:29;13.07;;;11.77;;
757;SDS011;363;48.764;9.172;2022-09-12T02:57:59;11.35;;;10.02;;
757;SDS011;363;48.764;9.172;2022-09-12T03:00:32;11.43;;;10.43;;
757;SDS011;363;48.764;9.172;2022-09-12T03:05:45;11.93;;;10.40;;
757;SDS011;363;48.764;9.172;2022-09-12T03:13:45;10.90;;;9.98;;
757;SDS011;363;48.764;9.172;2022-09-12T03:19:28;11.30;;;10.20;;
757;SDS011;363;48.764;9.172;2022-09-12T03:22:21;11.93;;;10.73;;
757;SDS011;363;48.764;9.172;2022-09-12T03:25:09;12.27;;;11.00;;
757;SDS011;363;48.764;9.172;2022-09-12T03:27:58;12.48;;;11.18;;
757;SDS011;363;48.764;9.172;2022-09-12T03:30:36;13.30;;;11.90;;
757;SDS011;363;48.764;9.172;2022-09-12T03:33:12;11.48;;;10.38;;
757;SDS011;363;48.764;9.172;2022-09-12T03:35:39;11.55;;;10.35;;
757;SDS011;363;48.764;9.172;2022-09-12T03:38:05;10.57;;;9.48;;
757;SDS011;363;48.764;9.172;2022-09-12T03:40:32;11.10;;;10.00;;
757;SDS011;363;48.764;9.172;2022-09-12T03:42:59;11.20;;;10.10;;
757;SDS011;363;48.764;9.172;2022-09-12T03:45:24;11.57;;;9.83;;
757;SDS011;363;48.764;9.172;2022-09-12T03:47:50;10.10;;;9.10;;
757;SDS011;363;48.764;9.172;2022-09-12T03:50:16;11.73;;;9.87;;
757;SDS011;363;48.764;9.172;2022-09-12T03:52:41;11.33;;;10.23;;
757;SDS011;363;48.764;9.172;2022-09-12T03:55:07;11.20;;;10.07;;
757;SDS011;363;48.764;9.172;2022-09-12T03:57:33;10.15;;;9.25;;
757;SDS011;363;48.764;9.172;2022-09-12T03:59:59;11.07;;;9.57;;
757;SDS011;363;48.764;9.172;2022-09-12T04:02:26;11.10;;;9.88;;
757;SDS011;363;48.764;9.172;2022-09-12T04:04:52;11.68;;;10.48;;
757;SDS011;363;48.764;9.172;2022-09-12T04:07:17;12.17;;;10.67;;
757;SDS011;363;48.764;9.172;2022-09-12T04:09:43;11.23;;;9.97;;
757;SDS011;363;48.764;9.172;2022-09-12T04:12:09;11.67;;;10.43;;
757;SDS011;363;48.764;9.172;2022-09-12T04:14:35;11.52;;;10.43;;
757;SDS011;363;48.764;9.172;2022-09-12T04:17:01;11.20;;;9.70;;
757;SDS011;363;48.764;9.172;2022-09-12T04:19:26;10.87;;;9.73;;
757;SDS011;363;48.764;9.172;2022-09-12T04:21:52;11.50;;;10.30;;
757;SDS011;363;48.764;9.172;2022-09-12T04:24:17;11.40;;;10.30;;
757;SDS011;363;48.764;9.172;2022-09-12T04:26:43;11.30;;;10.17;;
757;SDS011;363;48.764;9.172;2022-09-12T04:29:12;10.73;;;9.63;;
757;SDS011;363;48.764;9.172;2022-09-12T04:31:39;10.77;;;9.77;;
757;SDS011;363;48.764;9.172;2022-09-12T04:34:05;10.97;;;9.87;;
757;SDS011;363;48.764;9.172;2022-09-12T04:36:31;10.35;;;9.27;;
757;SDS011;363;48.764;9.172;2022-09-12T04:38:58;10.63;;;9.40;;
757;SDS011;363;48.764;9.172;2022-09-12T04:41:26;11.07;;;9.60;;
757;SDS011;363;48.764;9.172;2022-09-12T04:43:55;10.20;;;9.20;;
757;SDS011;363;48.764;9.172;2022-09-12T04:46:29;11.60;;;10.50;;
757;SDS011;363;48.764;9.172;2022-09-12T04:48:56;12.85;;;9.35;;
757;SDS011;363;48.764;9.172;2022-09-12T04:51:23;11.63;;;10.37;;
757;SDS011;363;48.764;9.172;2022-09-12T04:53:52;9.45;;;8.50;;
757;SDS011;363;48.764;9.172;2022-09-12T04:56:22;9.50;;;8.57;;
757;SDS011;363;48.764;9.172;2022-09-12T04:58:49;10.13;;;9.13;;
757;SDS011;363;48.764;9.172;2022-09-12T05:01:15;9.37;;;8.47;;
757;SDS011;363;48.764;9.172;2022-09-12T05:03:43;9.45;;;8.55;;
757;SDS011;363;48.764;9.172;2022-09-12T05:06:11;12.23;;;9.77;;
757;SDS011;363;48.764;9.172;2022-09-12T05:08:45;10.50;;;9.02;;
757;SDS011;363;48.764;9.172;2022-09-12T05:11:15;10.02;;;9.05;;
757;SDS011;363;48.764;9.172;2022-09-12T05:13:42;11.65;;;10.52;;
757;SDS011;363;48.764;9.172;2022-09-12T05:16:09;10.10;;;9.17;;
757;SDS011;363;48.764;9.172;2022-09-12T05:18:36;10.52;;;9.43;;
757;SDS011;363;48.764;9.172;2022-09-12T05:21:03;11.20;;;10.10;;
757;SDS011;363;48.764;9.172;2022-09-12T05:23:30;10.05;;;9.05;;
757;SDS011;363;48.764;9.172;2022-09-12T05:25:58;10.50;;;9.50;;
757;SDS011;363;48.764;9.172;2022-09-12T05:28:27;10.63;;;9.55;;
757;SDS011;363;48.764;9.172;2022-09-12T05:31:05;9.57;;;8.68;;
757;SDS011;363;48.764;9.172;2022-09-12T05:33:33;14.98;;;11.75;;
757;SDS011;363;48.764;9.172;2022-09-12T05:36:02;10.13;;;9.00;;
757;SDS011;363;48.764;9.172;2022-09-12T05:38:29;12.77;;;9.93;;
757;SDS011;363;48.764;9.172;2022-09-12T05:41:07;11.37;;;10.23;;
757;SDS011;363;48.764;9.172;2022-09-12T05:43:37;10.63;;;9.63;;
757;SDS011;363;48.764;9.172;2022-09-12T05:46:04;10.43;;;9.35;;
757;SDS011;363;48.764;9.172;2022-09-12T05:48:34;11.00;;;9.82;;
757;SDS011;363;48.764;9.172;2022-09-12T05:51:05;10.05;;;9.15;;
757;SDS011;363;48.764;9.172;2022-09-12T05:53:33;10.55;;;9.52;;
757;SDS011;363;48.764;9.172;2022-09-12T05:58:33;11.90;;;10.80;;
757;SDS011;363;48.764;9.172;2022-09-12T06:01:06;11.45;;;10.10;;
757;SDS011;363;48.764;9.172;2022-09-12T06:03:35;11.85;;;10.60;;
757;SDS011;363;48.764;9.172;2022-09-12T06:06:04;10.93;;;9.82;;
757;SDS011;363;48.764;9.172;2022-09-12T06:08:31;10.10;;;9.10;;
757;SDS011;363;48.764;9.172;2022-09-12T06:10:58;12.45;;;11.25;;
757;SDS011;363;48.764;9.172;2022-09-12T06:13:25;10.98;;;9.98;;
757;SDS011;363;48.764;9.172;2022-09-12T06:15:50;11.67;;;10.43;;
757;SDS011;363;48.764;9.172;2022-09-12T06:18:16;11.17;;;10.10;;
757;SDS011;363;48.764;9.172;2022-09-12T06:20:41;12.70;;;11.00;;
757;SDS011;363;48.764;9.172;2022-09-12T06:23:07;11.10;;;9.93;;
757;SDS011;363;48.764;9.172;2022-09-12T06:25:32;12.43;;;11.07;;
757;SDS011;363;48.764;9.172;2022-09-12T06:27:58;11.67;;;10.50;;
757;SDS011;363;48.764;9.172;2022-09-12T06:30:23;13.60;;;12.20;;
757;SDS011;363;48.764;9.172;2022-09-12T06:32:49;14.93;;;12.40;;
757;SDS011;363;48.764;9.172;2022-09-12T06:35:14;11.67;;;10.40;;
757;SDS011;363;48.764;9.172;2022-09-12T06:37:42;12.33;;;11.03;;
757;SDS011;363;48.764;9.172;2022-09-12T06:40:08;11.80;;;9.95;;
757;SDS011;363;48.764;9.172;2022-09-12T06:42:34;11.05;;;9.77;;
757;SDS011;363;48.764;9.172;2022-09-12T06:45:00;12.00;;;10.80;;
757;SDS011;363;48.764;9.172;2022-09-12T06:47:25;13.10;;;11.80;;
757;SDS011;363;48.764;9.172;2022-09-12T06:49:52;11.98;;;10.85;;
757;SDS011;363;48.764;9.172;2022-09-12T06:52:17;12.63;;;11.43;;
757;SDS011;363;48.764;9.172;2022-09-12T06:54:43;11.90;;;10.17;;
757;SDS011;363;48.764;9.172;2022-09-12T06:57:08;12.67;;;11.43;;
757;SDS011;363;48.764;9.172;2022-09-12T06:59:34;12.27;;;11.07;;
757;SDS011;363;48.764;9.172;2022-09-12T07:02:00;11.13;;;10.00;;
757;SDS011;363;48.764;9.172;2022-09-12T07:04:25;14.50;;;10.70;;
757;SDS011;363;48.764;9.172;2022-09-12T07:06:51;10.57;;;9.43;;
757;SDS011;363;48.764;9.172;2022-09-12T07:09:17;11.23;;;9.87;;
757;SDS011;363;48.764;9.172;2022-09-12T07:11:43;10.10;;;8.73;;
757;SDS011;363;48.764;9.172;2022-09-12T07:14:10;8.83;;;8.10;;
757;SDS011;363;48.764;9.172;2022-09-12T07:16:37;9.20;;;8.40;;
757;SDS011;363;48.764;9.172;2022-09-12T07:19:04;10.00;;;9.17;;
757;SDS011;363;48.764;9.172;2022-09-12T07:21:31;8.73;;;7.77;;
757;SDS011;363;48.764;9.172;2022-09-12T07:23:57;8.33;;;7.63;;
757;SDS011;363;48.764;9.172;2022-09-12T07:26:23;9.23;;;8.43;;
757;SDS011;363;48.764;9.172;2022-09-12T07:28:53;8.70;;;7.90;;
757;SDS011;363;48.764;9.172;2022-09-12T07:31:20;8.70;;;8.10;;
757;SDS011;363;48.764;9.172;2022-09-12T07:33:47;7.87;;;7.27;;
757;SDS011;363;48.764;9.172;2022-09-12T07:36:15;6.90;;;6.30;;
757;SDS011;363;48.764;9.172;2022-09-12T07:38:43;7.20;;;6.70;;
757;SDS011;363;48.764;9.172;2022-09-12T07:43:36;7.93;;;7.23;;
757;SDS011;363;48.764;9.172;2022-09-12T07:46:01;7.40;;;6.77;;
757;SDS011;363;48.764;9.172;2022-09-12T07:48:27;7.40;;;6.80;;
757;SDS011;363;48.764;9.172;2022-09-12T07:50:56;6.50;;;6.00;;
757;SDS011;363;48.764;9.172;2022-09-12T07:53:30;6.97;;;6.27;;
757;SDS011;363;48.764;9.172;2022-09-12T07:55:58;5.87;;;5.57;;
757;SDS011;363;48.764;9.172;2022-09-12T07:58:24;5.60;;;5.20;;
757;SDS011;363;48.764;9.172;2022-09-12T08:00:50;5.70;;;5.20;;
757;SDS011;363;48.764;9.172;2022-09-12T08:03:16;5.63;;;5.23;;
757;SDS011;363;48.764;9.172;2022-09-12T08:05:42;5.47;;;5.00;;
757;SDS011;363;48.764;9.172;2022-09-12T08:08:07;5.33;;;5.00;;
757;SDS011;363;48.764;9.172;2022-09-12T08:10:33;5.23;;;4.73;;
757;SDS011;363;48.764;9.172;2022-09-12T08:12:59;6.07;;;5.67;;
757;SDS011;363;48.764;9.172;2022-09-12T08:15:25;6.47;;;5.93;;
757;SDS011;363;48.764;9.172;2022-09-12T08:17:50;7.20;;;6.70;;
757;SDS011;363;48.764;9.172;2022-09-12T08:20:16;7.30;;;6.60;;
757;SDS011;363;48.764;9.172;2022-09-12T08:22:42;10.07;;;9.27;;
757;SDS011;363;48.764;9.172;2022-09-12T08:25:08;6.93;;;6.00;;
757;SDS011;363;48.764;9.172;2022-09-12T08:27:34;6.63;;;6.03;;
757;SDS011;363;48.764;9.172;2022-09-12T08:30:00;6.67;;;6.13;;
757;SDS011;363;48.764;9.172;2022-09-12T08:32:25;9.03;;;8.23;;
757;SDS011;363;48.764;9.172;2022-09-12T08:34:51;9.70;;;9.00;;
757;SDS011;363;48.764;9.172;2022-09-12T08:37:17;11.13;;;10.13;;
757;SDS011;363;48.764;9.172;2022-09-12T08:39:42;7.33;;;6.83;;
757;SDS011;363;48.764;9.172;2022-09-12T08:42:08;8.17;;;7.40;;
757;SDS011;363;48.764;9.172;2022-09-12T08:47:32;7.53;;;6.40;;
757;SDS011;363;48.764;9.172;2022-09-12T08:52:48;6.50;;;6.00;;
757;SDS011;363;48.764;9.172;2022-09-12T08:55:37;6.33;;;5.83;;
757;SDS011;363;48.764;9.172;2022-09-12T08:58:33;5.67;;;5.10;;
757;SDS011;363;48.764;9.172;2022-09-12T09:01:24;5.97;;;5.47;;
757;SDS011;363;48.764;9.172;2022-09-12T09:12:50;7.30;;;4.80;;
757;SDS011;363;48.764;9.172;2022-09-12T09:15:44;6.97;;;5.30;;
757;SDS011;363;48.764;9.172;2022-09-12T09:18:24;6.83;;;5.10;;
757;SDS011;363;48.764;9.172;2022-09-12T09:23:49;6.00;;;4.97;;
757;SDS011;363;48.764;9.172;2022-09-12T09:26:28;5.07;;;4.60;;
757;SDS011;363;48.764;9.172;2022-09-12T09:29:10;4.30;;;3.90;;
757;SDS011;363;48.764;9.172;2022-09-12T09:31:38;4.73;;;4.33;;
757;SDS011;363;48.764;9.172;2022-09-12T09:34:11;3.20;;;2.70;;
757;SDS011;363;48.764;9.172;2022-09-12T09:36:48;2.77;;;2.57;;
757;SDS011;363;48.764;9.172;2022-09-12T09:44:46;2.77;;;2.57;;
757;SDS011;363;48.764;9.172;2022-09-12T09:47:13;2.93;;;2.73;;
757;SDS011;363;48.764;9.172;2022-09-12T09:49:39;2.90;;;2.70;;
757;SDS011;363;48.764;9.172;2022-09-12T09:52:06;2.77;;;2.57;;
757;SDS011;363;48.764;9.172;2022-09-12T10:02:59;3.00;;;2.80;;
757;SDS011;363;48.764;9.172;2022-09-12T10:05:29;2.60;;;2.50;;
757;SDS011;363;48.764;9.172;2022-09-12T10:07:57;2.40;;;2.20;;
757;SDS011;363;48.764;9.172;2022-09-12T10:10:23;2.90;;;2.70;;
757;SDS011;363;48.764;9.172;2022-09-12T10:12:49;3.63;;;2.50;;
757;SDS011;363;48.764;9.172;2022-09-12T10:17:47;2.47;;;2.30;;
757;SDS011;363;48.764;9.172;2022-09-12T10:26:03;2.30;;;2.20;;
757;SDS011;363;48.764;9.172;2022-09-12T10:28:37;2.50;;;2.30;;
757;SDS011;363;48.764;9.172;2022-09-12T10:31:05;2.00;;;1.90;;
757;SDS011;363;48.764;9.172;2022-09-12T10:33:40;2.40;;;2.20;;
757;SDS011;363;48.764;9.172;2022-09-12T10:36:17;2.47;;;2.30;;
757;SDS011;363;48.764;9.172;2022-09-12T10:38:48;2.33;;;2.20;;
757;SDS011;363;48.764;9.172;2022-09-12T10:41:19;2.27;;;2.17;;
757;SDS011;363;48.764;9.172;2022-09-12T10:43:45;2.07;;;1.97;;
757;SDS011;363;48.764;9.172;2022-09-12T10:48:40;2.33;;;2.23;;
757;SDS011;363;48.764;9.172;2022-09-12T10:51:14;2.40;;;2.20;;
757;SDS011;363;48.764;9.172;2022-09-12T10:54:03;2.80;;;2.60;;
757;SDS011;363;48.764;9.172;2022-09-12T11:02:27;2.90;;;2.70;;
757;SDS011;363;48.764;9.172;2022-09-12T11:32:29;2.23;;;1.77;;
757;SDS011;363;48.764;9.172;2022-09-12T11:35:42;2.20;;;2.10;;
757;SDS011;363;48.764;9.172;2022-09-12T11:41:16;2.23;;;2.03;;
757;SDS011;363;48.764;9.172;2022-09-12T11:43:55;1.93;;;1.53;;
757;SDS011;363;48.764;9.172;2022-09-12T11:46:39;3.07;;;1.83;;
757;SDS011;363;48.764;9.172;2022-09-12T11:51:47;1.67;;;1.57;;
757;SDS011;363;48.764;9.172;2022-09-12T11:56:56;1.77;;;1.60;;
757;SDS011;363;48.764;9.172;2022-09-12T11:59:55;1.50;;;1.40;;
757;SDS011;363;48.764;9.172;2022-09-12T12:02:49;1.80;;;1.70;;
757;SDS011;363;48.764;9.172;2022-09-12T12:05:35;1.73;;;1.63;;
757;SDS011;363;48.764;9.172;2022-09-12T12:08:06;1.80;;;1.70;;
757;SDS011;363;48.764;9.172;2022-09-12T12:10:37;1.80;;;1.70;;
757;SDS011;363;48.764;9.172;2022-09-12T12:13:27;2.27;;;2.07;;
757;SDS011;363;48.764;9.172;2022-09-12T12:15:58;2.03;;;1.73;;
757;SDS011;363;48.764;9.172;2022-09-12T12:18:27;1.87;;;1.50;;
757;SDS011;363;48.764;9.172;2022-09-12T12:20:56;1.63;;;1.30;;
757;SDS011;363;48.764;9.172;2022-09-12T12:29:04;1.90;;;1.40;;
757;SDS011;363;48.764;9.172;2022-09-12T12:34:32;1.60;;;1.50;;
757;SDS011;363;48.764;9.172;2022-09-12T12:45:02;1.87;;;1.73;;
757;SDS011;363;48.764;9.172;2022-09-12T12:47:48;1.73;;;1.63;;
757;SDS011;363;48.764;9.172;2022-09-12T12:55:17;1.97;;;1.73;;
757;SDS011;363;48.764;9.172;2022-09-12T12:57:50;1.60;;;1.50;;
757;SDS011;363;48.764;9.172;2022-09-12T13:02:55;4.20;;;3.90;;
757;SDS011;363;48.764;9.172;2022-09-12T13:05:41;1.50;;;1.40;;
757;SDS011;363;48.764;9.172;2022-09-12T13:10:47;3.53;;;1.60;;
757;SDS011;363;48.764;9.172;2022-09-12T13:13:36;1.43;;;1.33;;
757;SDS011;363;48.764;9.172;2022-09-12T13:16:33;1.97;;;1.20;;
757;SDS011;363;48.764;9.172;2022-09-12T13:19:05;1.37;;;1.27;;
757;SDS011;363;48.764;9.172;2022-09-12T13:21:37;1.50;;;1.40;;
757;SDS011;363;48.764;9.172;2022-09-12T13:24:03;1.43;;;1.33;;
757;SDS011;363;48.764;9.172;2022-09-12T13:26:40;3.43;;;1.40;;
757;SDS011;363;48.764;9.172;2022-09-12T13:29:09;1.50;;;1.40;;
757;SDS011;363;48.764;9.172;2022-09-12T13:31:43;3.63;;;2.23;;
757;SDS011;363;48.764;9.172;2022-09-12T13:34:12;1.93;;;1.53;;
757;SDS011;363;48.764;9.172;2022-09-12T13:39:26;1.27;;;1.17;;
757;SDS011;363;48.764;9.172;2022-09-12T13:47:44;1.17;;;1.10;;
757;SDS011;363;48.764;9.172;2022-09-12T13:50:13;1.60;;;1.50;;
757;SDS011;363;48.764;9.172;2022-09-12T13:52:47;1.20;;;1.10;;
757;SDS011;363;48.764;9.172;2022-09-12T14:01:06;2.70;;;1.30;;
757;SDS011;363;48.764;9.172;2022-09-12T14:03:53;1.93;;;1.83;;
757;SDS011;363;48.764;9.172;2022-09-12T14:09:18;1.73;;;1.63;;
757;SDS011;363;48.764;9.172;2022-09-12T14:11:47;1.63;;;1.40;;
757;SDS011;363;48.764;9.172;2022-09-12T14:14:34;1.60;;;1.50;;
757;SDS011;363;48.764;9.172;2022-09-12T14:19:55;1.40;;;1.30;;
757;SDS011;363;48.764;9.172;2022-09-12T14:22:27;1.50;;;1.40;;
757;SDS011;363;48.764;9.172;2022-09-12T14:24:54;1.50;;;1.40;;
757;SDS011;363;48.764;9.172;2022-09-12T14:27:43;1.60;;;1.47;;
757;SDS011;363;48.764;9.172;2022-09-12T14:30:27;2.17;;;1.50;;
757;SDS011;363;48.764;9.172;2022-09-12T14:33:03;1.50;;;1.40;;
757;SDS011;363;48.764;9.172;2022-09-12T14:35:29;1.43;;;1.30;;
757;SDS011;363;48.764;9.172;2022-09-12T14:37:56;1.40;;;1.30;;
757;SDS011;363;48.764;9.172;2022-09-12T14:40:30;2.50;;;1.50;;
757;SDS011;363;48.764;9.172;2022-09-12T14:43:04;1.50;;;1.40;;
757;SDS011;363;48.764;9.172;2022-09-12T14:45:29;1.63;;;1.53;;
757;SDS011;363;48.764;9.172;2022-09-12T14:47:56;1.50;;;1.40;;
757;SDS011;363;48.764;9.172;2022-09-12T14:50:24;1.37;;;1.20;;
757;SDS011;363;48.764;9.172;2022-09-12T14:53:10;2.23;;;1.57;;
757;SDS011;363;48.764;9.172;2022-09-12T14:55:51;1.50;;;1.40;;
757;SDS011;363;48.764;9.172;2022-09-12T14:58:23;2.90;;;1.30;;
757;SDS011;363;48.764;9.172;2022-09-12T15:00:51;1.93;;;1.83;;
757;SDS011;363;48.764;9.172;2022-09-12T15:04:11;4.07;;;3.00;;
757;SDS011;363;48.764;9.172;2022-09-12T15:06:20;1.37;;;1.27;;
757;SDS011;363;48.764;9.172;2022-09-12T15:08:49;1.60;;;1.50;;
757;SDS011;363;48.764;9.172;2022-09-12T15:11:20;1.67;;;1.57;;
757;SDS011;363;48.764;9.172;2022-09-12T15:13:46;1.47;;;1.37;;
757;SDS011;363;48.764;9.172;2022-09-12T15:16:12;1.80;;;1.67;;
757;SDS011;363;48.764;9.172;2022-09-12T15:18:38;2.57;;;2.30;;
757;SDS011;363;48.764;9.172;2022-09-12T15:21:05;2.10;;;1.80;;
757;SDS011;363;48.764;9.172;2022-09-12T15:23:36;1.70;;;1.43;;
757;SDS011;363;48.764;9.172;2022-09-12T15:26:09;1.50;;;1.37;;
757;SDS011;363;48.764;9.172;2022-09-12T15:28:37;1.97;;;1.77;;
757;SDS011;363;48.764;9.172;2022-09-12T15:31:04;2.20;;;2.00;;
757;SDS011;363;48.764;9.172;2022-09-12T15:33:39;1.63;;;1.53;;
757;SDS011;363;48.764;9.172;2022-09-12T15:36:09;1.50;;;1.40;;
757;SDS011;363;48.764;9.172;2022-09-12T15:38:37;1.70;;;1.60;;
757;SDS011;363;48.764;9.172;2022-09-12T15:41:07;2.37;;;2.20;;
757;SDS011;363;48.764;9.172;2022-09-12T15:43:41;2.60;;;2.40;;
757;SDS011;363;48.764;9.172;2022-09-12T15:46:08;2.00;;;1.90;;
757;SDS011;363;48.764;9.172;2022-09-12T15:48:35;1.80;;;1.70;;
757;SDS011;363;48.764;9.172;2022-09-12T15:51:01;1.77;;;1.67;;
757;SDS011;363;48.764;9.172;2022-09-12T15:53:28;1.73;;;1.63;;
757;SDS011;363;48.764;9.172;2022-09-12T15:55:55;1.70;;;1.60;;
757;SDS011;363;48.764;9.172;2022-09-12T15:58:20;1.80;;;1.70;;
757;SDS011;363;48.764;9.172;2022-09-12T16:00:46;2.20;;;1.80;;
757;SDS011;363;48.764;9.172;2022-09-12T16:03:18;2.47;;;2.27;;
757;SDS011;363;48.764;9.172;2022-09-12T16:05:49;1.60;;;1.50;;
757;SDS011;363;48.764;9.172;2022-09-12T16:08:20;2.33;;;1.80;;
757;SDS011;363;48.764;9.172;2022-09-12T16:10:46;1.70;;;1.60;;
757;SDS011;363;48.764;9.172;2022-09-12T16:13:15;1.83;;;1.73;;
757;SDS011;363;48.764;9.172;2022-09-12T16:15:40;1.90;;;1.80;;
757;SDS011;363;48.764;9.172;2022-09-12T16:18:06;2.40;;;1.90;;
757;SDS011;363;48.764;9.172;2022-09-12T16:20:32;1.83;;;1.73;;
757;SDS011;363;48.764;9.172;2022-09-12T16:22:57;1.73;;;1.50;;
757;SDS011;363;48.764;9.172;2022-09-12T16:25:23;2.50;;;2.30;;
757;SDS011;363;48.764;9.172;2022-09-12T16:27:49;2.37;;;2.00;;
757;SDS011;363;48.764;9.172;2022-09-12T16:30:15;2.30;;;2.10;;
757;SDS011;363;48.764;9.172;2022-09-12T16:32:40;2.27;;;2.10;;
757;SDS011;363;48.764;9.172;2022-09-12T16:35:06;2.10;;;1.90;;
757;SDS011;363;48.764;9.172;2022-09-12T16:37:32;1.70;;;1.60;;
757;SDS011;363;48.764;9.172;2022-09-12T16:39:58;2.30;;;2.00;;
757;SDS011;363;48.764;9.172;2022-09-12T16:42:24;4.60;;;3.20;;
757;SDS011;363;48.764;9.172;2022-09-12T16:44:50;2.10;;;2.00;;
757;SDS011;363;48.764;9.172;2022-09-12T16:47:16;2.03;;;1.90;;
757;SDS011;363;48.764;9.172;2022-09-12T16:49:42;1.87;;;1.77;;
757;SDS011;363;48.764;9.172;2022-09-12T16:52:08;1.70;;;1.60;;
757;SDS011;363;48.764;9.172;2022-09-12T16:54:34;2.00;;;1.90;;
757;SDS011;363;48.764;9.172;2022-09-12T16:57:00;1.77;;;1.50;;
757;SDS011;363;48.764;9.172;2022-09-12T16:59:26;2.07;;;1.93;;
757;SDS011;363;48.764;9.172;2022-09-12T17:01:52;2.57;;;2.00;;
757;SDS011;363;48.764;9.172;2022-09-12T17:04:17;1.83;;;1.73;;
757;SDS011;363;48.764;9.172;2022-09-12T17:06:43;2.10;;;1.87;;
757;SDS011;363;48.764;9.172;2022-09-12T17:09:09;3.30;;;2.90;;
757;SDS011;363;48.764;9.172;2022-09-12T17:11:36;3.47;;;3.27;;
757;SDS011;363;48.764;9.172;2022-09-12T17:14:03;3.37;;;3.07;;
757;SDS011;363;48.764;9.172;2022-09-12T17:16:34;3.03;;;2.73;;
757;SDS011;363;48.764;9.172;2022-09-12T17:19:02;3.30;;;2.97;;
757;SDS011;363;48.764;9.172;2022-09-12T17:21:28;3.03;;;2.73;;
757;SDS011;363;48.764;9.172;2022-09-12T17:23:54;3.40;;;3.10;;
757;SDS011;363;48.764;9.172;2022-09-12T17:26:20;3.70;;;3.20;;
757;SDS011;363;48.764;9.172;2022-09-12T17:28:46;3.93;;;2.10;;
757;SDS011;363;48.764;9.172;2022-09-12T17:31:12;2.73;;;2.53;;
757;SDS011;363;48.764;9.172;2022-09-12T17:33:38;2.50;;;2.30;;
757;SDS011;363;48.764;9.172;2022-09-12T17:36:05;2.60;;;2.40;;
757;SDS011;363;48.764;9.172;2022-09-12T17:38:33;1.97;;;1.87;;
757;SDS011;363;48.764;9.172;2022-09-12T17:41:07;3.20;;;2.30;;
757;SDS011;363;48.764;9.172;2022-09-12T17:43:41;2.50;;;2.30;;
757;SDS011;363;48.764;9.172;2022-09-12T17:46:13;2.50;;;2.30;;
757;SDS011;363;48.764;9.172;2022-09-12T17:48:38;2.40;;;2.20;;
757;SDS011;363;48.764;9.172;2022-09-12T17:51:11;3.07;;;2.87;;
757;SDS011;363;48.764;9.172;2022-09-12T17:53:39;7.00;;;4.27;;
757;SDS011;363;48.764;9.172;2022-09-12T17:56:05;3.30;;;3.00;;
757;SDS011;363;48.764;9.172;2022-09-12T17:58:31;3.93;;;3.17;;
757;SDS011;363;48.764;9.172;2022-09-12T18:01:01;5.17;;;3.27;;
757;SDS011;363;48.764;9.172;2022-09-12T18:03:54;6.20;;;3.40;;
757;SDS011;363;48.764;9.172;2022-09-12T18:06:21;6.00;;;3.63;;
757;SDS011;363;48.764;9.172;2022-09-12T18:08:47;5.03;;;4.57;;
757;SDS011;363;48.764;9.172;2022-09-12T18:11:13;3.87;;;3.57;;
757;SDS011;363;48.764;9.172;2022-09-12T18:13:38;5.53;;;3.73;;
757;SDS011;363;48.764;9.172;2022-09-12T18:16:05;4.03;;;3.73;;
757;SDS011;363;48.764;9.172;2022-09-12T18:18:32;4.23;;;3.93;;
757;SDS011;363;48.764;9.172;2022-09-12T18:20:59;4.73;;;3.90;;
757;SDS011;363;48.764;9.172;2022-09-12T18:23:25;5.03;;;4.20;;
757;SDS011;363;48.764;9.172;2022-09-12T18:26:06;6.30;;;5.20;;
757;SDS011;363;48.764;9.172;2022-09-12T18:28:34;4.05;;;2.85;;
757;SDS011;363;48.764;9.172;2022-09-12T18:31:02;2.53;;;2.33;;
757;SDS011;363;48.764;9.172;2022-09-12T18:33:28;2.90;;;2.60;;
757;SDS011;363;48.764;9.172;2022-09-12T18:35:54;3.00;;;2.73;;
757;SDS011;363;48.764;9.172;2022-09-12T18:38:19;4.40;;;3.10;;
757;SDS011;363;48.764;9.172;2022-09-12T18:40:45;4.30;;;3.70;;
757;SDS011;363;48.764;9.172;2022-09-12T18:43:11;3.37;;;2.80;;
757;SDS011;363;48.764;9.172;2022-09-12T18:45:38;4.13;;;3.30;;
757;SDS011;363;48.764;9.172;2022-09-12T18:48:03;3.60;;;2.70;;
757;SDS011;363;48.764;9.172;2022-09-12T18:50:30;3.08;;;2.72;;